Time;durP1;ratioP1;P1;durP2;ratioP2;P2;SDS_P1;SDS_P2;PMS_P1;PMS_P2;Temp;Humidity;BMP_temperature;BMP_pressure;BME280_temperature;BME280_humidity;BME280_pressure;Samples;Min_cycle;Max_cycle;Signal;HPM_P1;HPM_P2
2024/01/20 00:02:01;;;;;;;28.85;12.60;;;0.80;90.70;;;;;;5005170;28;20021;-66
2024/01/20 00:04:27;;;;;;;25.70;12.27;;;0.70;90.70;;;;;;5006129;28;20109;-67
2024/01/20 00:06:52;;;;;;;28.92;13.48;;;0.70;90.80;;;;;;4987043;28;20412;-67
2024/01/20 00:09:18;;;;;;;28.08;12.23;;;0.70;90.80;;;;;;4993741;28;21414;-67
2024/01/20 00:11:43;;;;;;;27.73;12.73;;;0.70;90.80;;;;;;4991752;28;20134;-66
2024/01/20 00:14:09;;;;;;;20.52;10.52;;;0.70;90.80;;;;;;4992463;28;20105;-67
2024/01/20 00:16:34;;;;;;;25.17;10.77;;;0.80;90.80;;;;;;4994503;28;20054;-67
2024/01/20 00:19:00;;;;;;;25.40;11.50;;;0.70;90.80;;;;;;4992789;28;20030;-66
2024/01/20 00:21:25;;;;;;;17.67;8.93;;;0.80;90.80;;;;;;4988771;28;20037;-67
2024/01/20 00:23:51;;;;;;;22.70;10.65;;;0.80;90.80;;;;;;4991893;28;20030;-66
2024/01/20 00:26:16;;;;;;;19.35;9.25;;;0.80;90.70;;;;;;4997262;28;20105;-67
2024/01/20 00:28:42;;;;;;;19.30;9.50;;;0.80;90.70;;;;;;5004509;28;20041;-66
2024/01/20 00:31:08;;;;;;;20.95;9.85;;;0.80;90.70;;;;;;5005478;28;20426;-66
2024/01/20 00:33:33;;;;;;;26.80;11.55;;;0.80;90.70;;;;;;5002693;28;20030;-66
2024/01/20 00:35:59;;;;;;;23.63;10.65;;;0.80;90.80;;;;;;5001056;28;20022;-69
2024/01/20 00:38:26;;;;;;;24.42;10.48;;;0.80;90.80;;;;;;5000685;28;20036;-68
2024/01/20 00:40:52;;;;;;;26.10;11.38;;;0.80;90.70;;;;;;4998099;28;20041;-67
2024/01/20 00:43:17;;;;;;;24.88;12.68;;;0.80;90.70;;;;;;4995669;28;20053;-67
2024/01/20 00:45:43;;;;;;;28.33;12.48;;;0.80;90.70;;;;;;5010786;28;20052;-68
2024/01/20 00:48:09;;;;;;;26.35;11.68;;;0.80;90.80;;;;;;5005336;28;20377;-66
2024/01/20 00:50:34;;;;;;;27.98;11.80;;;0.70;90.80;;;;;;5004041;28;20030;-66
2024/01/20 00:53:00;;;;;;;27.55;10.73;;;0.70;90.90;;;;;;4994196;28;20029;-66
2024/01/20 00:55:25;;;;;;;26.92;12.88;;;0.80;90.90;;;;;;5004395;28;20033;-68
2024/01/20 00:57:51;;;;;;;26.50;11.45;;;0.80;90.90;;;;;;5004810;28;20087;-67
2024/01/20 01:00:17;;;;;;;24.80;10.13;;;0.80;90.90;;;;;;4993473;28;20121;-64
2024/01/20 01:02:43;;;;;;;24.52;10.60;;;0.80;90.90;;;;;;4991917;28;20027;-66
2024/01/20 01:05:09;;;;;;;22.98;10.60;;;0.80;90.90;;;;;;4996525;28;20033;-65
2024/01/20 01:07:35;;;;;;;20.48;9.35;;;0.80;90.90;;;;;;4988471;28;20072;-65
2024/01/20 01:10:03;;;;;;;24.27;10.50;;;0.80;90.80;;;;;;5000423;28;20030;-66
2024/01/20 01:12:29;;;;;;;23.00;9.40;;;0.80;90.80;;;;;;4993556;28;20038;-67
2024/01/20 01:14:55;;;;;;;33.78;14.45;;;0.80;90.90;;;;;;4993818;28;20030;-67
2024/01/20 01:17:21;;;;;;;29.25;12.38;;;0.80;91.00;;;;;;4990249;28;20066;-67
2024/01/20 01:19:47;;;;;;;33.97;14.32;;;0.80;91.00;;;;;;4989872;28;20105;-65
2024/01/20 01:22:13;;;;;;;27.40;11.32;;;0.70;91.00;;;;;;4990636;28;20158;-66
2024/01/20 01:24:38;;;;;;;28.15;11.75;;;0.70;91.10;;;;;;4987645;28;20401;-65
2024/01/20 01:27:05;;;;;;;26.63;11.63;;;0.80;91.10;;;;;;4988913;28;20037;-66
2024/01/20 01:29:31;;;;;;;28.42;12.15;;;0.80;91.10;;;;;;5003021;28;20568;-66
2024/01/20 01:31:56;;;;;;;24.77;11.05;;;0.80;91.10;;;;;;4989795;28;20030;-67
2024/01/20 01:34:22;;;;;;;24.40;10.07;;;0.80;91.10;;;;;;4988121;28;20511;-66
2024/01/20 01:36:48;;;;;;;23.15;9.95;;;0.80;91.20;;;;;;4988911;28;20141;-66
2024/01/20 01:39:15;;;;;;;25.77;11.50;;;0.80;91.20;;;;;;4988821;28;20029;-68
2024/01/20 01:41:41;;;;;;;26.52;10.43;;;0.80;91.20;;;;;;4987294;28;20587;-66
2024/01/20 01:44:06;;;;;;;25.65;11.43;;;0.80;91.20;;;;;;4986976;28;20026;-66
2024/01/20 01:46:32;;;;;;;23.92;9.88;;;0.80;91.20;;;;;;4988320;28;20038;-67
2024/01/20 01:48:57;;;;;;;23.10;9.90;;;0.80;91.20;;;;;;4988927;28;20540;-67
2024/01/20 01:51:23;;;;;;;31.67;13.20;;;0.90;91.30;;;;;;4990019;28;20582;-67
2024/01/20 01:53:49;;;;;;;22.70;9.95;;;0.90;91.30;;;;;;4987939;28;20493;-67
2024/01/20 01:56:16;;;;;;;20.75;9.05;;;0.90;91.20;;;;;;4988783;28;20514;-66
2024/01/20 01:58:43;;;;;;;24.38;10.60;;;0.90;91.20;;;;;;4988223;28;20040;-65
2024/01/20 02:01:08;;;;;;;23.75;9.88;;;0.90;91.30;;;;;;4989813;28;20040;-67
2024/01/20 02:03:34;;;;;;;24.33;9.32;;;1.00;91.30;;;;;;4994350;28;20472;-66
2024/01/20 02:06:00;;;;;;;24.83;10.55;;;1.00;91.20;;;;;;4992246;28;20076;-67
2024/01/20 02:08:26;;;;;;;22.17;9.68;;;1.00;91.20;;;;;;4994538;28;20038;-66
2024/01/20 02:10:52;;;;;;;21.73;10.13;;;1.00;91.20;;;;;;4994561;28;20037;-66
2024/01/20 02:13:20;;;;;;;30.70;13.13;;;1.00;91.30;;;;;;4989697;28;20038;-66
2024/01/20 02:15:46;;;;;;;26.23;10.82;;;0.90;91.40;;;;;;4991566;28;20022;-66
2024/01/20 02:18:12;;;;;;;24.20;9.75;;;0.90;91.40;;;;;;4989470;28;20033;-67
2024/01/20 02:20:37;;;;;;;25.38;10.60;;;0.90;91.40;;;;;;4989189;28;20484;-65
2024/01/20 02:23:03;;;;;;;30.75;13.20;;;1.00;91.40;;;;;;4989059;28;20048;-65
2024/01/20 02:25:28;;;;;;;28.38;12.80;;;0.90;91.40;;;;;;4990345;28;20405;-67
2024/01/20 02:27:54;;;;;;;26.25;11.43;;;1.00;91.50;;;;;;4990850;28;20397;-67
2024/01/20 02:30:20;;;;;;;23.42;10.70;;;1.00;91.50;;;;;;4990534;28;20401;-67
2024/01/20 02:32:46;;;;;;;22.60;10.07;;;1.00;91.50;;;;;;4991187;28;20488;-66
2024/01/20 02:35:11;;;;;;;23.75;10.38;;;1.00;91.50;;;;;;4985936;28;20545;-64
2024/01/20 02:37:37;;;;;;;21.65;9.60;;;1.00;91.50;;;;;;4988564;28;20496;-66
2024/01/20 02:40:03;;;;;;;26.70;10.55;;;1.00;91.50;;;;;;4991590;28;20363;-66
2024/01/20 02:42:28;;;;;;;24.52;10.52;;;1.00;91.50;;;;;;4991750;28;20030;-66
2024/01/20 02:44:54;;;;;;;26.52;11.43;;;1.00;91.40;;;;;;4991712;28;20030;-66
2024/01/20 02:47:20;;;;;;;30.10;12.02;;;1.00;91.50;;;;;;4987578;28;20034;-66
2024/01/20 02:49:46;;;;;;;29.73;12.48;;;1.00;91.70;;;;;;4995183;28;20021;-67
2024/01/20 02:52:11;;;;;;;31.42;13.18;;;1.00;91.50;;;;;;4990336;28;20037;-68
2024/01/20 02:54:37;;;;;;;25.60;11.07;;;1.00;91.60;;;;;;4988651;28;20357;-66
2024/01/20 02:57:03;;;;;;;25.60;10.27;;;1.00;91.60;;;;;;4993705;28;20041;-67
2024/01/20 02:59:29;;;;;;;26.40;10.98;;;1.00;91.50;;;;;;4992600;28;20481;-68
2024/01/20 03:01:54;;;;;;;28.23;11.77;;;1.00;91.60;;;;;;4994964;28;20054;-67
2024/01/20 03:04:20;;;;;;;28.02;11.80;;;0.90;91.60;;;;;;4991778;28;20473;-66
2024/01/20 03:06:45;;;;;;;30.45;11.50;;;0.90;91.60;;;;;;4988938;28;20038;-65
2024/01/20 03:09:14;;;;;;;23.77;10.70;;;0.90;91.60;;;;;;4988768;28;20026;-67
2024/01/20 03:11:43;;;;;;;20.95;8.88;;;0.90;91.70;;;;;;4985335;28;20516;-65
2024/01/20 03:14:09;;;;;;;24.25;9.85;;;0.90;91.70;;;;;;4988235;28;20476;-66
2024/01/20 03:16:35;;;;;;;24.33;10.43;;;0.90;92.00;;;;;;4988606;28;20026;-67
2024/01/20 03:19:00;;;;;;;27.15;11.02;;;0.80;91.80;;;;;;4992370;28;20456;-66
2024/01/20 03:21:26;;;;;;;27.23;11.63;;;0.80;91.90;;;;;;4987750;28;20026;-65
2024/01/20 03:23:55;;;;;;;27.02;11.23;;;0.80;91.90;;;;;;4988852;28;20050;-67
2024/01/20 03:26:21;;;;;;;30.67;11.48;;;0.80;92.20;;;;;;4990442;28;20018;-66
2024/01/20 03:28:47;;;;;;;25.30;10.32;;;0.80;91.90;;;;;;4990902;28;20026;-67
2024/01/20 03:31:12;;;;;;;23.63;9.38;;;0.80;92.00;;;;;;4986417;28;20023;-64
2024/01/20 03:33:38;;;;;;;19.80;8.15;;;0.80;92.00;;;;;;4990111;28;20030;-67
2024/01/20 03:36:04;;;;;;;20.73;8.55;;;0.80;92.00;;;;;;4993844;28;20469;-67
2024/01/20 03:38:29;;;;;;;20.08;9.10;;;0.80;91.90;;;;;;4993873;28;20491;-66
2024/01/20 03:40:55;;;;;;;20.20;8.30;;;0.70;91.90;;;;;;4990039;28;20543;-64
2024/01/20 03:43:20;;;;;;;22.45;9.30;;;0.70;92.00;;;;;;4990666;28;20130;-67
2024/01/20 03:45:46;;;;;;;23.02;10.30;;;0.70;92.00;;;;;;4989881;28;20037;-67
2024/01/20 03:48:12;;;;;;;22.45;8.95;;;0.70;92.00;;;;;;4988036;28;20030;-66
2024/01/20 03:50:38;;;;;;;17.73;7.88;;;0.60;92.00;;;;;;4986305;28;20030;-66
2024/01/20 03:53:04;;;;;;;17.75;7.72;;;0.60;92.00;;;;;;4991604;28;20033;-67
2024/01/20 03:55:29;;;;;;;15.80;7.00;;;0.60;92.10;;;;;;4989185;28;20034;-65
2024/01/20 03:57:55;;;;;;;17.13;7.82;;;0.60;92.10;;;;;;4989325;28;20022;-66
2024/01/20 04:00:21;;;;;;;18.45;7.75;;;0.50;92.10;;;;;;4987729;28;20038;-67
2024/01/20 04:02:46;;;;;;;21.30;9.07;;;0.50;92.10;;;;;;4988925;28;20022;-66
2024/01/20 04:05:12;;;;;;;16.77;6.97;;;0.50;92.20;;;;;;4989646;28;20081;-67
2024/01/20 04:07:39;;;;;;;20.17;8.48;;;0.50;92.20;;;;;;4983237;28;20042;-67
2024/01/20 04:10:05;;;;;;;20.05;8.82;;;0.50;92.20;;;;;;4990576;28;20038;-66
2024/01/20 04:12:30;;;;;;;24.55;9.73;;;0.40;92.20;;;;;;4989958;28;20046;-67
2024/01/20 04:14:56;;;;;;;22.92;10.90;;;0.40;92.20;;;;;;4991940;28;20066;-67
2024/01/20 04:17:22;;;;;;;20.25;9.52;;;0.40;92.20;;;;;;4992366;28;20038;-66
2024/01/20 04:19:47;;;;;;;28.92;11.57;;;0.40;92.20;;;;;;4993229;28;20424;-66
2024/01/20 04:22:13;;;;;;;26.92;11.85;;;0.40;92.30;;;;;;4992578;28;20064;-67
2024/01/20 04:24:39;;;;;;;24.95;10.15;;;0.40;92.30;;;;;;4986879;28;20030;-66
2024/01/20 04:27:04;;;;;;;30.05;10.85;;;0.40;92.30;;;;;;4994493;28;20021;-67
2024/01/20 04:29:30;;;;;;;20.83;9.20;;;0.40;92.30;;;;;;4993716;28;20073;-67
2024/01/20 04:31:55;;;;;;;25.77;10.88;;;0.40;92.30;;;;;;4990352;28;20475;-66
2024/01/20 04:34:21;;;;;;;20.60;8.48;;;0.40;92.30;;;;;;4997281;28;20030;-66
2024/01/20 04:36:47;;;;;;;24.42;9.20;;;0.40;92.30;;;;;;4991907;28;20038;-66
2024/01/20 04:39:12;;;;;;;19.35;8.10;;;0.50;92.30;;;;;;4994733;28;20080;-66
2024/01/20 04:41:38;;;;;;;18.38;8.77;;;0.50;92.30;;;;;;4989992;28;20023;-66
2024/01/20 04:44:04;;;;;;;19.98;9.23;;;0.50;92.30;;;;;;4990932;28;20137;-67
2024/01/20 04:46:29;;;;;;;17.92;8.65;;;0.50;92.40;;;;;;4992863;28;20104;-67
2024/01/20 04:48:55;;;;;;;16.08;6.97;;;0.50;92.30;;;;;;4989547;28;20424;-65
2024/01/20 04:51:21;;;;;;;18.33;7.95;;;0.50;92.30;;;;;;5004015;28;20030;-67
2024/01/20 04:53:46;;;;;;;18.65;8.27;;;0.50;92.30;;;;;;5002396;28;20045;-66
2024/01/20 04:56:12;;;;;;;18.70;7.82;;;0.50;92.30;;;;;;4997942;28;20023;-64
2024/01/20 04:58:37;;;;;;;20.67;8.70;;;0.50;92.30;;;;;;5001384;28;20161;-66
2024/01/20 05:01:04;;;;;;;21.83;9.18;;;0.40;92.30;;;;;;4996550;28;20106;-66
2024/01/20 05:03:29;;;;;;;19.00;8.40;;;0.40;92.40;;;;;;4998792;28;20026;-65
2024/01/20 05:05:55;;;;;;;19.50;8.23;;;0.40;92.40;;;;;;5004913;28;20036;-65
2024/01/20 05:08:21;;;;;;;19.33;8.90;;;0.40;92.40;;;;;;5000275;28;20030;-66
2024/01/20 05:10:47;;;;;;;16.05;7.65;;;0.40;92.40;;;;;;5000856;28;20524;-64
2024/01/20 05:13:12;;;;;;;22.25;8.80;;;0.40;92.30;;;;;;5000221;28;20031;-65
2024/01/20 05:15:38;;;;;;;26.42;10.55;;;0.40;92.40;;;;;;4997549;28;20401;-66
2024/01/20 05:18:04;;;;;;;23.77;10.80;;;0.40;92.40;;;;;;4995096;28;20029;-67
2024/01/20 05:20:29;;;;;;;21.38;9.27;;;0.40;92.40;;;;;;4993260;28;20389;-66
2024/01/20 05:22:55;;;;;;;18.95;8.15;;;0.40;92.40;;;;;;4995763;28;20050;-68
2024/01/20 05:25:21;;;;;;;20.20;8.80;;;0.40;92.40;;;;;;4992443;28;20027;-67
2024/01/20 05:27:46;;;;;;;15.15;7.03;;;0.40;92.30;;;;;;4994326;28;20026;-66
2024/01/20 05:30:12;;;;;;;15.27;6.90;;;0.40;92.30;;;;;;4992094;28;20040;-66
2024/01/20 05:32:41;;;;;;;14.43;6.63;;;0.50;92.30;;;;;;4990028;28;20073;-66
2024/01/20 05:35:07;;;;;;;12.95;5.68;;;0.50;92.30;;;;;;4991755;28;20405;-66
2024/01/20 05:37:33;;;;;;;16.05;7.28;;;0.60;92.30;;;;;;4985736;28;20037;-66
2024/01/20 05:39:58;;;;;;;18.00;7.80;;;0.60;92.30;;;;;;4991901;28;20473;-66
2024/01/20 05:42:24;;;;;;;21.13;8.13;;;0.60;92.30;;;;;;4991581;28;20500;-68
2024/01/20 05:44:50;;;;;;;16.63;6.40;;;0.50;92.30;;;;;;4995838;28;20056;-67
2024/01/20 05:47:15;;;;;;;16.30;6.82;;;0.60;92.40;;;;;;4990533;28;20113;-67
2024/01/20 05:49:41;;;;;;;22.40;8.70;;;0.60;92.30;;;;;;4989807;28;20022;-66
2024/01/20 05:52:07;;;;;;;17.33;7.50;;;0.60;92.30;;;;;;4989929;28;20035;-66
2024/01/20 05:54:32;;;;;;;14.52;7.05;;;0.60;92.40;;;;;;4988006;28;20083;-67
2024/01/20 05:56:58;;;;;;;14.38;6.85;;;0.70;92.30;;;;;;4988757;28;20068;-68
2024/01/20 05:59:23;;;;;;;17.45;7.97;;;0.70;92.30;;;;;;4990266;28;20026;-66
2024/01/20 06:01:50;;;;;;;25.02;10.35;;;0.70;92.30;;;;;;4993379;28;20396;-67
2024/01/20 06:04:19;;;;;;;23.02;10.13;;;0.70;92.30;;;;;;4995204;28;20019;-65
2024/01/20 06:06:48;;;;;;;23.98;9.38;;;0.60;92.30;;;;;;4997661;28;20015;-66
2024/01/20 06:09:14;;;;;;;19.30;8.80;;;0.60;92.40;;;;;;4996605;28;20041;-66
2024/01/20 06:11:41;;;;;;;23.20;10.25;;;0.60;92.40;;;;;;4991321;28;20343;-67
2024/01/20 06:14:06;;;;;;;23.92;9.88;;;0.60;92.40;;;;;;4985213;28;20037;-66
2024/01/20 06:16:33;;;;;;;18.40;9.27;;;0.50;92.50;;;;;;4988697;28;20109;-65
2024/01/20 06:18:59;;;;;;;19.55;8.63;;;0.50;92.50;;;;;;4993338;28;20031;-66
2024/01/20 06:21:25;;;;;;;16.48;6.97;;;0.60;92.60;;;;;;4989352;28;20158;-65
2024/01/20 06:23:51;;;;;;;15.70;6.95;;;0.50;92.60;;;;;;4993927;28;20104;-66
2024/01/20 06:26:17;;;;;;;18.90;8.35;;;0.50;92.60;;;;;;4990567;28;20054;-65
2024/01/20 06:28:43;;;;;;;19.52;8.73;;;0.50;92.60;;;;;;4991272;28;20113;-65
2024/01/20 06:31:09;;;;;;;17.50;8.30;;;0.50;92.60;;;;;;4989712;28;20030;-64
2024/01/20 06:33:34;;;;;;;19.45;8.40;;;0.50;92.60;;;;;;4985391;28;20092;-67
2024/01/20 06:36:00;;;;;;;20.45;9.15;;;0.60;92.60;;;;;;4991859;28;20022;-68
2024/01/20 06:38:28;;;;;;;20.98;9.77;;;0.60;92.70;;;;;;4991776;28;20034;-64
2024/01/20 06:40:54;;;;;;;17.77;8.13;;;0.50;92.70;;;;;;4990574;28;20068;-65
2024/01/20 06:43:19;;;;;;;22.85;9.65;;;0.50;92.70;;;;;;4992107;28;20038;-64
2024/01/20 06:45:46;;;;;;;22.95;9.68;;;0.50;92.80;;;;;;4993355;28;20022;-65
2024/01/20 06:48:12;;;;;;;22.75;9.38;;;0.50;92.80;;;;;;4987514;28;20046;-65
2024/01/20 06:50:43;;;;;;;20.67;9.20;;;0.50;92.80;;;;;;4984428;28;20018;-66
2024/01/20 06:53:10;;;;;;;18.33;7.72;;;0.50;92.90;;;;;;4989270;28;20029;-66
2024/01/20 06:55:36;;;;;;;15.60;6.70;;;0.50;92.90;;;;;;4992478;28;20042;-65
2024/01/20 06:58:03;;;;;;;16.70;7.55;;;0.50;92.90;;;;;;4996035;28;20109;-64
2024/01/20 07:00:28;;;;;;;17.15;7.10;;;0.50;92.90;;;;;;4987762;28;20113;-64
2024/01/20 07:02:54;;;;;;;14.20;6.95;;;0.50;92.90;;;;;;4994153;28;20113;-65
2024/01/20 07:05:19;;;;;;;17.25;7.53;;;0.50;93.00;;;;;;4988661;28;20040;-67
2024/01/20 07:07:45;;;;;;;14.98;7.20;;;0.50;93.00;;;;;;4987707;28;20089;-66
2024/01/20 07:10:11;;;;;;;16.08;6.63;;;0.50;93.00;;;;;;4988819;28;20015;-66
2024/01/20 07:12:36;;;;;;;14.02;6.43;;;0.50;93.00;;;;;;4992873;28;20105;-65
2024/01/20 07:15:03;;;;;;;16.42;7.05;;;0.50;93.00;;;;;;4991204;28;20037;-68
2024/01/20 07:17:29;;;;;;;22.00;9.70;;;0.60;93.00;;;;;;4990783;28;20030;-65
2024/01/20 07:19:54;;;;;;;20.25;9.05;;;0.60;93.00;;;;;;4991558;28;20034;-66
2024/01/20 07:22:20;;;;;;;18.65;8.07;;;0.50;93.00;;;;;;4993955;28;20022;-66
2024/01/20 07:24:46;;;;;;;16.67;7.28;;;0.50;93.00;;;;;;4986263;28;20105;-67
2024/01/20 07:27:11;;;;;;;12.63;6.28;;;0.60;93.00;;;;;;4990395;28;20034;-67
2024/01/20 07:29:37;;;;;;;16.27;6.75;;;0.60;93.00;;;;;;4989643;28;20042;-65
2024/01/20 07:32:02;;;;;;;14.45;6.55;;;0.50;93.00;;;;;;4992091;28;20037;-67
2024/01/20 07:34:28;;;;;;;14.95;6.90;;;0.50;93.00;;;;;;4992269;28;20026;-67
2024/01/20 07:36:53;;;;;;;18.67;8.55;;;0.50;93.00;;;;;;4987707;28;20022;-66
2024/01/20 07:39:19;;;;;;;19.38;7.65;;;0.50;93.00;;;;;;4979482;28;20034;-64
2024/01/20 07:41:44;;;;;;;15.68;6.70;;;0.50;93.00;;;;;;4984833;28;20084;-66
2024/01/20 07:44:10;;;;;;;18.55;6.72;;;0.50;93.00;;;;;;4985555;28;20022;-64
2024/01/20 07:46:36;;;;;;;14.90;6.13;;;0.60;93.00;;;;;;4989628;28;20109;-66
2024/01/20 07:49:01;;;;;;;13.60;6.30;;;0.60;93.00;;;;;;4987396;28;20027;-66
2024/01/20 07:51:27;;;;;;;14.55;5.97;;;0.60;93.00;;;;;;4984563;28;20034;-66
2024/01/20 07:53:54;;;;;;;11.23;4.95;;;0.60;93.00;;;;;;4986702;28;20092;-66
2024/01/20 07:56:20;;;;;;;14.57;6.82;;;0.60;92.90;;;;;;4986760;28;20111;-66
2024/01/20 07:58:45;;;;;;;20.48;9.60;;;0.70;93.00;;;;;;4984519;28;20543;-65
2024/01/20 08:01:11;;;;;;;19.65;9.05;;;0.60;93.00;;;;;;4984088;28;20019;-66
2024/01/20 08:03:36;;;;;;;18.83;8.48;;;0.60;93.00;;;;;;4990229;28;20106;-66
2024/01/20 08:06:02;;;;;;;20.27;8.10;;;0.60;93.00;;;;;;4991550;28;20030;-64
2024/01/20 08:08:27;;;;;;;13.10;6.75;;;0.70;93.10;;;;;;4984797;28;20035;-65
2024/01/20 08:10:53;;;;;;;18.00;7.90;;;0.70;93.10;;;;;;4983089;28;20393;-66
2024/01/20 08:13:20;;;;;;;19.58;8.40;;;0.70;93.00;;;;;;4987271;28;20037;-65
2024/01/20 08:15:46;;;;;;;19.35;9.00;;;0.70;93.10;;;;;;4988914;28;20034;-63
2024/01/20 08:18:11;;;;;;;23.58;11.15;;;0.70;93.10;;;;;;4988747;28;20022;-65
2024/01/20 08:20:37;;;;;;;16.83;8.27;;;0.70;93.20;;;;;;4989047;28;20052;-67
2024/01/20 08:23:03;;;;;;;18.13;8.15;;;0.80;93.30;;;;;;4989191;28;20826;-64
2024/01/20 08:25:28;;;;;;;14.27;6.63;;;0.80;93.30;;;;;;4987744;28;20041;-65
2024/01/20 08:27:54;;;;;;;17.90;7.35;;;0.90;93.20;;;;;;4985327;28;20030;-63
2024/01/20 08:30:20;;;;;;;20.42;8.48;;;1.00;93.20;;;;;;4987049;28;20034;-64
2024/01/20 08:32:45;;;;;;;20.65;9.52;;;1.00;93.20;;;;;;4985142;28;20038;-64
2024/01/20 08:35:11;;;;;;;18.85;8.20;;;1.00;93.20;;;;;;4985425;28;20030;-66
2024/01/20 08:37:37;;;;;;;20.73;8.88;;;1.00;93.10;;;;;;4986024;28;20412;-65
2024/01/20 08:40:02;;;;;;;19.90;9.10;;;1.10;93.10;;;;;;4986584;28;20117;-63
2024/01/20 08:42:28;;;;;;;18.23;8.40;;;1.10;93.10;;;;;;4985758;28;20041;-65
2024/01/20 08:44:54;;;;;;;21.70;10.25;;;1.10;93.10;;;;;;4987744;28;20054;-66
2024/01/20 08:47:19;;;;;;;20.60;9.10;;;1.10;93.10;;;;;;4985091;28;20392;-66
2024/01/20 08:49:47;;;;;;;19.92;8.98;;;1.10;93.20;;;;;;4989074;28;20123;-65
2024/01/20 08:52:13;;;;;;;17.00;7.50;;;1.10;93.20;;;;;;4981942;28;20034;-66
2024/01/20 08:54:39;;;;;;;16.40;7.45;;;1.20;93.20;;;;;;4983602;28;20041;-66
2024/01/20 08:57:05;;;;;;;22.17;10.35;;;1.30;93.50;;;;;;4983743;28;20044;-65
2024/01/20 08:59:30;;;;;;;18.50;8.23;;;1.30;93.20;;;;;;4986666;28;20030;-67
2024/01/20 09:01:56;;;;;;;13.60;6.15;;;1.20;93.20;;;;;;4983301;28;20026;-66
2024/01/20 09:04:21;;;;;;;10.10;5.40;;;1.30;93.20;;;;;;4980986;28;20030;-65
2024/01/20 09:06:47;;;;;;;19.48;8.50;;;1.30;93.20;;;;;;4987225;28;20092;-66
2024/01/20 09:09:12;;;;;;;18.92;8.95;;;1.30;93.20;;;;;;4984000;28;20038;-66
2024/01/20 09:11:38;;;;;;;15.95;7.38;;;1.30;93.20;;;;;;4979828;28;20022;-67
2024/01/20 09:14:04;;;;;;;16.90;7.72;;;1.40;93.20;;;;;;4980815;28;20125;-67
2024/01/20 09:16:30;;;;;;;20.65;8.88;;;1.40;93.20;;;;;;4985561;28;20030;-66
2024/01/20 09:18:56;;;;;;;20.13;9.20;;;1.40;93.20;;;;;;4981993;28;20037;-65
2024/01/20 09:21:21;;;;;;;16.38;7.30;;;1.40;93.30;;;;;;4982839;28;20077;-68
2024/01/20 09:23:47;;;;;;;17.98;8.40;;;1.40;93.30;;;;;;4983783;28;20033;-65
2024/01/20 09:26:13;;;;;;;17.67;8.05;;;1.40;93.30;;;;;;4985528;28;20080;-65
2024/01/20 09:28:38;;;;;;;16.67;8.07;;;1.40;93.40;;;;;;4981195;28;20038;-64
2024/01/20 09:31:04;;;;;;;15.55;7.78;;;1.40;93.40;;;;;;4987853;28;20054;-63
2024/01/20 09:33:31;;;;;;;17.67;7.72;;;1.40;93.40;;;;;;4982476;28;20108;-66
2024/01/20 09:35:57;;;;;;;12.98;6.43;;;1.50;93.40;;;;;;4983179;28;20049;-65
2024/01/20 09:38:25;;;;;;;11.10;5.15;;;1.50;93.40;;;;;;4984799;28;20042;-65
2024/01/20 09:40:51;;;;;;;13.07;5.90;;;1.60;93.30;;;;;;4987679;28;20045;-66
2024/01/20 09:43:17;;;;;;;13.65;5.53;;;1.70;93.30;;;;;;4980815;28;20022;-66
2024/01/20 09:45:42;;;;;;;16.60;7.20;;;1.70;93.20;;;;;;4980449;28;20062;-66
2024/01/20 09:48:08;;;;;;;18.33;7.85;;;1.60;93.20;;;;;;4983907;28;20044;-66
2024/01/20 09:50:34;;;;;;;13.77;6.43;;;1.60;93.20;;;;;;4984693;28;20034;-66
2024/01/20 09:53:11;;;;;;;10.05;5.20;;;1.60;93.30;;;;;;4982848;28;20035;-64
2024/01/20 09:55:36;;;;;;;12.63;5.40;;;1.70;93.30;;;;;;4981214;28;20062;-64
2024/01/20 09:58:04;;;;;;;8.75;4.63;;;1.70;93.20;;;;;;4984736;28;20397;-65
2024/01/20 10:00:30;;;;;;;13.52;6.22;;;1.80;93.20;;;;;;4980433;28;20034;-66
2024/01/20 10:02:56;;;;;;;12.30;6.05;;;1.80;93.20;;;;;;4977594;28;20113;-63
2024/01/20 10:05:24;;;;;;;12.73;5.50;;;1.80;93.20;;;;;;4982995;28;20034;-65
2024/01/20 10:07:49;;;;;;;11.25;5.45;;;1.70;93.20;;;;;;4980835;28;20030;-66
2024/01/20 10:10:22;;;;;;;10.50;5.13;;;1.80;93.30;;;;;;4980355;28;20042;-65
2024/01/20 10:12:52;;;;;;;8.65;4.10;;;1.80;93.30;;;;;;4984227;28;20030;-66
2024/01/20 10:15:22;;;;;;;14.85;6.90;;;1.90;93.30;;;;;;4985086;28;20341;-66
2024/01/20 10:17:48;;;;;;;13.90;6.53;;;1.90;93.20;;;;;;4981399;28;20034;-67
2024/01/20 10:20:21;;;;;;;13.35;6.38;;;1.90;93.10;;;;;;4985900;28;20057;-66
2024/01/20 10:22:47;;;;;;;11.90;6.07;;;2.00;93.10;;;;;;4982003;28;20034;-67
2024/01/20 10:25:18;;;;;;;13.07;6.45;;;2.10;93.00;;;;;;4981293;28;20054;-66
2024/01/20 10:27:45;;;;;;;13.73;6.53;;;2.10;92.90;;;;;;4981911;28;20033;-66
2024/01/20 10:30:12;;;;;;;15.63;6.55;;;2.10;92.80;;;;;;4982643;28;20038;-65
2024/01/20 10:32:40;;;;;;;11.68;5.57;;;2.10;92.70;;;;;;4975318;28;20045;-65
2024/01/20 10:35:08;;;;;;;14.30;6.85;;;2.10;92.70;;;;;;4982854;28;20113;-66
2024/01/20 10:37:36;;;;;;;20.63;8.05;;;2.10;92.70;;;;;;4982749;28;20657;-66
2024/01/20 10:40:02;;;;;;;13.48;6.90;;;2.00;92.70;;;;;;4981992;28;20029;-66
2024/01/20 10:42:32;;;;;;;14.20;6.45;;;2.00;92.80;;;;;;4981725;28;20560;-62
2024/01/20 10:45:04;;;;;;;16.17;7.25;;;2.00;92.80;;;;;;4980050;28;20034;-65
2024/01/20 10:47:35;;;;;;;13.52;5.95;;;2.00;93.00;;;;;;4982008;28;20038;-65
2024/01/20 10:50:04;;;;;;;14.85;6.82;;;2.00;92.80;;;;;;4981375;28;20105;-63
2024/01/20 10:52:35;;;;;;;17.90;7.93;;;2.00;92.80;;;;;;4981833;28;20054;-67
2024/01/20 10:55:05;;;;;;;13.83;6.67;;;2.00;92.80;;;;;;5015368;28;20034;-65
2024/01/20 10:57:31;;;;;;;11.27;5.68;;;2.00;92.80;;;;;;4980388;28;20049;-65
2024/01/20 10:59:59;;;;;;;12.43;5.68;;;2.00;92.80;;;;;;4978487;28;20491;-65
2024/01/20 11:02:26;;;;;;;11.82;5.72;;;2.00;92.80;;;;;;4982946;28;20045;-66
2024/01/20 11:04:52;;;;;;;12.25;6.18;;;2.10;92.80;;;;;;4982450;28;20041;-66
2024/01/20 11:07:27;;;;;;;13.13;6.57;;;2.10;92.70;;;;;;4986197;28;20034;-66
2024/01/20 11:09:54;;;;;;;12.52;5.68;;;2.20;92.70;;;;;;4972791;28;20026;-66
2024/01/20 11:12:22;;;;;;;21.58;9.93;;;2.20;92.60;;;;;;4978575;28;20098;-67
2024/01/20 11:14:55;;;;;;;19.38;8.88;;;2.10;92.60;;;;;;4977803;28;20714;-65
2024/01/20 11:17:22;;;;;;;16.95;8.07;;;2.10;92.60;;;;;;4980564;28;20022;-64
2024/01/20 11:19:49;;;;;;;17.30;7.18;;;2.10;92.60;;;;;;4976605;28;20035;-66
2024/01/20 11:22:44;;;;;;;16.08;7.65;;;2.10;92.60;;;;;;4981133;28;20093;-66
2024/01/20 11:25:12;;;;;;;14.10;6.18;;;2.10;92.70;;;;;;4979436;28;20436;-64
2024/01/20 11:27:49;;;;;;;14.63;6.35;;;2.20;92.60;;;;;;5005486;28;20073;-66
2024/01/20 11:30:29;;;;;;;11.05;5.95;;;2.20;92.60;;;;;;4983186;28;20044;-66
2024/01/20 11:32:55;;;;;;;10.73;4.80;;;2.20;92.50;;;;;;4982724;28;20015;-65
2024/01/20 11:35:21;;;;;;;16.05;8.00;;;2.20;92.40;;;;;;4982881;28;20027;-67
2024/01/20 11:37:47;;;;;;;14.38;7.03;;;2.20;92.50;;;;;;4982019;28;20053;-66
2024/01/20 11:40:13;;;;;;;18.13;8.45;;;2.20;92.50;;;;;;4981299;28;20494;-66
2024/01/20 11:42:39;;;;;;;16.25;7.68;;;2.20;92.40;;;;;;4985279;28;20149;-67
2024/01/20 11:45:06;;;;;;;14.45;6.75;;;2.10;92.40;;;;;;4984776;28;20397;-66
2024/01/20 11:47:32;;;;;;;12.23;5.90;;;2.20;92.50;;;;;;4986696;28;20033;-66
2024/01/20 11:49:59;;;;;;;12.68;6.53;;;2.30;92.40;;;;;;4984480;28;20721;-67
2024/01/20 11:52:25;;;;;;;17.00;8.43;;;2.30;92.30;;;;;;4984808;28;20034;-66
2024/01/20 11:54:51;;;;;;;14.60;7.15;;;2.30;92.50;;;;;;4986097;28;20759;-67
2024/01/20 11:57:26;;;;;;;11.48;5.80;;;2.30;92.20;;;;;;4983174;28;20038;-66
2024/01/20 11:59:52;;;;;;;12.68;6.57;;;2.40;92.30;;;;;;4983356;28;20495;-66
2024/01/20 12:02:18;;;;;;;14.15;6.90;;;2.50;92.20;;;;;;4984760;28;20015;-64
2024/01/20 12:04:44;;;;;;;13.98;7.00;;;2.50;92.10;;;;;;4985966;28;20449;-67
2024/01/20 12:07:10;;;;;;;12.77;6.65;;;2.50;92.10;;;;;;4981432;28;20026;-65
2024/01/20 12:09:36;;;;;;;10.30;4.60;;;2.60;92.00;;;;;;4983531;28;20042;-66
2024/01/20 12:12:03;;;;;;;10.35;4.22;;;2.70;92.00;;;;;;4980189;28;20109;-67
2024/01/20 12:14:29;;;;;;;12.05;5.72;;;2.80;92.00;;;;;;4984310;28;20049;-66
2024/01/20 12:16:55;;;;;;;13.90;6.47;;;2.80;91.80;;;;;;4984980;28;20061;-64
2024/01/20 12:19:21;;;;;;;17.63;8.70;;;2.90;91.80;;;;;;5003448;28;20027;-64
2024/01/20 12:21:48;;;;;;;17.90;7.88;;;2.80;91.60;;;;;;4986613;28;20113;-65
2024/01/20 12:24:13;;;;;;;15.82;6.60;;;2.90;91.60;;;;;;4985677;28;20030;-67
2024/01/20 12:26:42;;;;;;;15.27;7.55;;;3.40;91.20;;;;;;4983966;28;20019;-66
2024/01/20 12:29:08;;;;;;;16.58;7.72;;;3.40;90.80;;;;;;4985829;28;20035;-67
2024/01/20 12:31:34;;;;;;;17.65;8.18;;;3.40;90.70;;;;;;4984987;28;20076;-66
2024/01/20 12:34:00;;;;;;;14.98;7.20;;;3.30;90.70;;;;;;4983228;28;20177;-71
2024/01/20 12:36:28;;;;;;;16.20;7.35;;;3.40;90.80;;;;;;4983027;28;20026;-68
2024/01/20 12:38:54;;;;;;;17.08;7.85;;;3.50;91.00;;;;;;4985751;28;20514;-69